»·PEaware :: BRAVE15 KEND-KEND

BRAVE15 :: KEND-KEND

FLIGHT INFORMATION

Flight Status: Arrived
Operator: Unknown
More flights by this operator :: More flights under this callsign
Pilot: Christopher A. (21983)
Aircraft: BEECH AIRCRAFT T-6A TEXAN
(TEX2)
More flights by this aircraft type
Origin: KEND Vance AFB
United States
Destination: KEND Vance AFB
United States
More flights between these airports :: More routes between these airports
Route: +AVK END9
File this flight plan on PilotEdge
Remarks:
Altitude:
(Current/Filed)
0ft
Speed:
(Current/Filed)
0kts
Departed: 22-Sep-20 06:11 AM
Arrived: 22-Sep-20 06:54 AM
Distance/Time
Traveled:
1nm/0:42
Distance/Time
To Go:
Arrived

Flight Plot

Page will automatically refresh every two minutes.

Flight plan parsing failed; only flown route is shown


Map Options




Map Legend


Flown Route
Filed Route
Departure Airport
Arrival Airport
Navaid (VOR, NDB)
Fix

Horizontal Profiles

Position Reports

Time Latitude Longitude Heading Altitude Ground
Speed
22-Sep-20 06:00 36.345066 -97.908135 358 1281ft 0kts
22-Sep-20 06:01 36.345066 -97.908135 358 1281ft 0kts
22-Sep-20 06:02 36.345066 -97.908135 358 1281ft 0kts
22-Sep-20 06:03 36.345066 -97.908135 358 1281ft 0kts
22-Sep-20 06:04 36.345120 -97.908132 0 1281ft 2kts
22-Sep-20 06:05 36.343978 -97.909201 180 1283ft 15kts
22-Sep-20 06:06 36.339219 -97.909202 181 1288ft 19kts
22-Sep-20 06:07 36.334720 -97.909127 167 1293ft 10kts
22-Sep-20 06:08 36.333824 -97.909715 274 1291ft 0kts
22-Sep-20 06:09 36.333454 -97.911082 359 1290ft 0kts
22-Sep-20 06:10 36.355380 -97.909945 10 1794ft 171kts
22-Sep-20 06:11 36.410921 -97.900761 354 4498ft 194kts
22-Sep-20 06:12 36.476037 -97.903624 357 5237ft 259kts
22-Sep-20 06:13 36.550672 -97.899747 0 5262ft 248kts
22-Sep-20 06:14 36.616748 -97.906000 306 5920ft 234kts
22-Sep-20 06:15 36.636128 -97.987710 277 5940ft 243kts
22-Sep-20 06:16 36.650103 -98.073837 285 5909ft 241kts
22-Sep-20 06:17 36.667566 -98.154325 283 6550ft 238kts
22-Sep-20 06:18 36.684102 -98.237911 283 6564ft 250kts
22-Sep-20 06:19 36.701858 -98.323267 283 6655ft 248kts
22-Sep-20 06:20 36.716657 -98.408055 278 6100ft 235kts
22-Sep-20 06:21 36.727303 -98.488527 279 4384ft 227kts
22-Sep-20 06:22 36.740168 -98.560401 282 4582ft 207kts
22-Sep-20 06:23 36.757869 -98.629591 292 3373ft 206kts
22-Sep-20 06:24 36.797335 -98.652096 307 2798ft 122kts
22-Sep-20 06:25 36.777663 -98.670458 179 1487ft 91kts
22-Sep-20 06:26 36.766427 -98.653438 358 3063ft 147kts
22-Sep-20 06:27 36.796683 -98.661836 243 2426ft 122kts
22-Sep-20 06:28 36.766593 -98.670626 183 1772ft 141kts
22-Sep-20 06:29 36.784575 -98.651760 359 3034ft 139kts
22-Sep-20 06:30 36.784238 -98.670495 178 1633ft 117kts
22-Sep-20 06:31 36.752822 -98.659787 71 2815ft 181kts
22-Sep-20 06:32 36.792241 -98.652645 320 2861ft 131kts
22-Sep-20 06:33 36.772872 -98.670351 182 1531ft 109kts
22-Sep-20 06:34 36.738508 -98.644100 124 3893ft 191kts
22-Sep-20 06:35 36.707406 -98.584064 126 5785ft 227kts
22-Sep-20 06:36 36.668513 -98.513848 124 5624ft 268kts
22-Sep-20 06:37 36.628203 -98.435375 123 5454ft 266kts
22-Sep-20 06:38 36.587878 -98.359126 124 5421ft 267kts
22-Sep-20 06:39 36.575286 -98.272578 82 5713ft 260kts
22-Sep-20 06:40 36.595749 -98.187709 65 6042ft 263kts
22-Sep-20 06:41 36.578128 -98.100980 113 6001ft 262kts
22-Sep-20 06:42 36.541904 -98.022677 128 6035ft 262kts
22-Sep-20 06:43 36.496190 -97.951687 129 6028ft 263kts
22-Sep-20 06:44 36.450206 -97.880882 130 6036ft 263kts
22-Sep-20 06:45 36.401893 -97.812962 133 6050ft 262kts
22-Sep-20 06:46 36.339310 -97.786880 191 4907ft 232kts
22-Sep-20 06:47 36.277540 -97.800865 192 5059ft 232kts
22-Sep-20 06:48 36.222479 -97.830317 223 3008ft 218kts
22-Sep-20 06:49 36.207038 -97.899178 292 2329ft 223kts
22-Sep-20 06:50 36.266406 -97.909698 359 2374ft 226kts
22-Sep-20 06:51 36.328583 -97.910409 358 2337ft 215kts
22-Sep-20 06:52 36.321708 -97.899591 243 2129ft 115kts
22-Sep-20 06:53 36.345002 -97.910949 3 1281ft 33kts
22-Sep-20 06:54 36.346764 -97.909710 96 1280ft 0kts

Navigation Log

Ident Type
Flight plan parsing failed, navigation log unavailable